createdAt,value
2023-03-01T00:00:30.174Z,71.90
2023-03-01T00:03:24.110Z,71.40
2023-03-01T00:05:57.491Z,71.60
2023-03-01T00:08:32.079Z,72.20
2023-03-01T00:11:13.522Z,75.20
2023-03-01T00:13:48.294Z,72.30
2023-03-01T00:16:24.095Z,69.10
2023-03-01T00:18:59.091Z,73.50
2023-03-01T00:21:32.954Z,74.00
2023-03-01T00:24:07.589Z,65.70
2023-03-01T00:26:41.159Z,71.30
2023-03-01T00:29:15.151Z,66.10
2023-03-01T00:31:48.794Z,68.60
2023-03-01T00:34:22.463Z,68.40
2023-03-01T00:36:56.073Z,61.80
2023-03-01T00:39:29.698Z,62.70
2023-03-01T00:42:03.604Z,68.30
2023-03-01T00:44:37.195Z,65.10
2023-03-01T00:47:11.900Z,60.30
2023-03-01T00:49:45.502Z,60.10
2023-03-01T00:52:18.929Z,63.40
2023-03-01T00:54:54.542Z,60.80
2023-03-01T00:57:28.410Z,56.90
2023-03-01T01:00:02.720Z,61.00
2023-03-01T01:02:36.814Z,57.00
2023-03-01T01:05:11.835Z,56.90
2023-03-01T01:07:46.146Z,56.80
2023-03-01T01:10:22.248Z,53.80
2023-03-01T01:12:55.484Z,57.90
2023-03-01T01:15:30.291Z,60.30
2023-03-01T01:18:03.792Z,57.40
2023-03-01T01:20:40.030Z,57.30
2023-03-01T01:23:13.377Z,60.80
2023-03-01T01:25:46.837Z,59.40
2023-03-01T01:28:20.307Z,54.50
2023-03-01T01:30:54.107Z,59.30
2023-03-01T01:33:28.455Z,54.90
2023-03-01T01:36:02.482Z,56.00
2023-03-01T01:38:36.429Z,57.80
2023-03-01T01:41:12.717Z,59.20
2023-03-01T01:43:48.224Z,59.00
2023-03-01T01:46:31.959Z,55.90
2023-03-01T01:49:09.977Z,60.90
2023-03-01T01:51:49.236Z,55.60
2023-03-01T01:54:27.878Z,56.40
2023-03-01T01:57:06.613Z,62.80
2023-03-01T01:59:41.784Z,61.50
2023-03-01T02:02:16.359Z,56.90
2023-03-01T02:04:52.554Z,56.00
2023-03-01T02:07:28.738Z,63.00
2023-03-01T02:10:03.300Z,59.80
2023-03-01T02:12:38.720Z,58.90
2023-03-01T02:15:13.630Z,59.20
2023-03-01T02:17:47.767Z,64.70
2023-03-01T02:20:26.519Z,59.20
2023-03-01T02:23:00.771Z,59.80
2023-03-01T02:25:43.538Z,60.60
2023-03-01T02:28:32.550Z,61.90
2023-03-01T02:31:26.705Z,60.80
2023-03-01T02:34:01.470Z,62.00
2023-03-01T02:36:41.506Z,63.40
2023-03-01T02:39:20.891Z,63.90
2023-03-01T02:41:59.285Z,66.20
2023-03-01T02:44:32.935Z,63.30
2023-03-01T02:47:07.382Z,57.20
2023-03-01T02:49:41.485Z,60.30
2023-03-01T02:52:31.446Z,63.00
2023-03-01T02:55:09.151Z,64.50
2023-03-01T02:57:45.583Z,64.80
2023-03-01T03:00:22.933Z,59.50
2023-03-01T03:02:58.458Z,65.10
2023-03-01T03:05:34.013Z,62.70
2023-03-01T03:08:09.034Z,65.70
2023-03-01T03:10:45.564Z,67.60
2023-03-01T03:13:20.428Z,68.40
2023-03-01T03:15:54.100Z,62.20
2023-03-01T03:18:28.524Z,63.90
2023-03-01T03:21:02.237Z,62.00
2023-03-01T03:23:36.784Z,61.60
2023-03-01T03:26:10.659Z,62.30
2023-03-01T03:28:48.185Z,61.80
2023-03-01T03:31:21.931Z,60.50
2023-03-01T03:33:58.197Z,64.80
2023-03-01T03:36:32.581Z,64.50
2023-03-01T03:39:07.031Z,65.30
2023-03-01T03:41:41.026Z,62.30
2023-03-01T03:44:14.560Z,61.20
2023-03-01T03:46:48.388Z,63.40
2023-03-01T03:49:22.191Z,61.30
2023-03-01T03:51:55.831Z,62.10
2023-03-01T03:54:29.874Z,61.40
2023-03-01T03:57:03.517Z,58.60
2023-03-01T03:59:37.071Z,60.50
2023-03-01T04:02:11.427Z,65.50
2023-03-01T04:04:44.945Z,66.50
2023-03-01T04:07:18.690Z,62.50
2023-03-01T04:09:52.644Z,68.50
2023-03-01T04:12:26.391Z,64.50
2023-03-01T04:15:00.161Z,60.10
2023-03-01T04:17:33.768Z,66.70
2023-03-01T04:20:08.422Z,62.30
2023-03-01T04:22:43.215Z,61.70
2023-03-01T04:25:17.163Z,61.40
2023-03-01T04:27:51.004Z,64.70
2023-03-01T04:30:26.708Z,61.90
2023-03-01T04:33:00.491Z,66.30
2023-03-01T04:35:34.268Z,63.30
2023-03-01T04:38:08.163Z,65.80
2023-03-01T04:40:43.816Z,59.80
2023-03-01T04:43:17.842Z,65.50
2023-03-01T04:45:51.165Z,68.00
2023-03-01T04:48:24.994Z,65.60
2023-03-01T04:50:58.472Z,60.10
2023-03-01T04:53:32.673Z,65.70
2023-03-01T04:56:06.898Z,66.10
2023-03-01T04:58:40.683Z,68.40
2023-03-01T05:01:17.976Z,61.60
2023-03-01T05:03:53.718Z,70.20
2023-03-01T05:06:27.516Z,67.20
2023-03-01T05:09:01.306Z,66.00
2023-03-01T05:11:37.226Z,64.40
2023-03-01T05:14:12.490Z,66.00
2023-03-01T05:16:46.278Z,62.40
2023-03-01T05:19:24.240Z,65.00
2023-03-01T05:22:07.246Z,58.30
2023-03-01T05:24:41.209Z,58.00
2023-03-01T05:27:15.640Z,61.80
2023-03-01T05:29:49.752Z,63.80
2023-03-01T05:32:23.552Z,56.30
2023-03-01T05:34:56.953Z,59.00
2023-03-01T05:37:30.997Z,57.90
2023-03-01T05:40:06.610Z,62.50
2023-03-01T05:42:39.963Z,57.80
2023-03-01T05:45:15.360Z,60.80
2023-03-01T05:47:50.002Z,58.60
2023-03-01T05:50:26.532Z,59.10
2023-03-01T05:53:05.755Z,60.20
2023-03-01T05:55:40.116Z,58.10
2023-03-01T05:58:16.629Z,59.70
2023-03-01T06:00:52.921Z,59.40
2023-03-01T06:03:28.513Z,59.30
2023-03-01T06:06:03.600Z,57.90
2023-03-01T06:08:37.253Z,58.60
2023-03-01T06:11:10.876Z,60.20
2023-03-01T06:13:45.883Z,59.80
2023-03-01T06:16:19.463Z,60.20
2023-03-01T06:18:53.198Z,55.20
2023-03-01T06:21:26.732Z,60.90
2023-03-01T06:24:00.302Z,54.60
2023-03-01T06:26:34.372Z,58.70
2023-03-01T06:29:08.826Z,55.50
2023-03-01T06:31:42.394Z,55.20
2023-03-01T06:34:15.965Z,58.30
2023-03-01T06:36:49.363Z,56.30
2023-03-01T06:39:23.295Z,56.90
2023-03-01T06:41:57.807Z,56.80
2023-03-01T06:44:32.485Z,58.20
2023-03-01T06:47:06.265Z,61.80
2023-03-01T06:49:39.625Z,53.60
2023-03-01T06:52:13.374Z,58.20
2023-03-01T06:54:46.995Z,54.20
2023-03-01T06:57:20.622Z,59.10
2023-03-01T06:59:54.431Z,52.90
2023-03-01T07:02:28.288Z,54.20
2023-03-01T07:05:02.076Z,56.30
2023-03-01T07:07:35.740Z,57.10
2023-03-01T07:10:12.204Z,55.80
2023-03-01T07:12:45.954Z,50.00
2023-03-01T07:15:19.785Z,52.00
2023-03-01T07:17:53.952Z,57.70
2023-03-01T07:20:27.925Z,52.00
2023-03-01T07:23:02.183Z,53.50
2023-03-01T07:25:36.338Z,53.80
2023-03-01T07:28:10.128Z,53.40
2023-03-01T07:30:43.887Z,53.80
2023-03-01T07:33:17.953Z,52.00
2023-03-01T07:35:58.521Z,50.70
2023-03-01T07:38:33.217Z,50.90
2023-03-01T07:41:08.165Z,48.60
2023-03-01T07:43:42.575Z,46.60
2023-03-01T07:46:16.540Z,53.50
2023-03-01T07:48:50.536Z,47.20
2023-03-01T07:51:24.125Z,46.80
2023-03-01T07:53:57.725Z,50.50
2023-03-01T07:56:31.652Z,45.90
2023-03-01T07:59:05.634Z,48.50
2023-03-01T08:01:39.483Z,49.00
2023-03-01T08:04:13.803Z,47.40
2023-03-01T08:06:47.833Z,49.00
2023-03-01T08:09:21.475Z,47.60
2023-03-01T08:11:55.825Z,45.70
2023-03-01T08:14:29.396Z,44.70
2023-03-01T08:17:04.305Z,46.10
2023-03-01T08:19:38.072Z,40.20
2023-03-01T08:22:12.217Z,40.10
2023-03-01T08:24:45.826Z,39.70
2023-03-01T08:27:20.158Z,36.30
2023-03-01T08:29:54.059Z,37.00
2023-03-01T08:32:27.965Z,38.50
2023-03-01T08:35:02.042Z,36.70
2023-03-01T08:37:36.079Z,38.70
2023-03-01T08:40:12.726Z,37.30
2023-03-01T08:42:46.471Z,37.60
2023-03-01T08:45:20.756Z,36.30
2023-03-01T08:47:56.650Z,38.20
2023-03-01T08:50:29.826Z,36.40
2023-03-01T08:53:03.215Z,36.10
2023-03-01T08:55:36.736Z,39.20
2023-03-01T08:58:10.337Z,33.70
2023-03-01T09:00:44.394Z,35.10
2023-03-01T09:03:17.991Z,35.50
2023-03-01T09:05:51.770Z,32.60
2023-03-01T09:08:25.574Z,34.10
2023-03-01T09:10:59.427Z,34.20
2023-03-01T09:13:34.068Z,34.00
2023-03-01T09:16:10.275Z,37.20
2023-03-01T09:18:43.844Z,34.90
2023-03-01T09:21:24.895Z,31.80
2023-03-01T09:24:04.232Z,34.80
2023-03-01T09:26:38.188Z,30.60
2023-03-01T09:29:12.116Z,31.30
2023-03-01T09:31:46.196Z,32.10
2023-03-01T09:34:24.837Z,34.70
2023-03-01T09:39:30.388Z,31.50
2023-03-01T09:42:07.924Z,35.80
2023-03-01T09:44:46.823Z,30.40
2023-03-01T09:47:24.135Z,30.40
2023-03-01T09:50:04.786Z,30.00
2023-03-01T09:52:44.483Z,29.30
2023-03-01T09:55:20.533Z,30.00
2023-03-01T09:57:58.639Z,28.40
2023-03-01T10:00:44.917Z,28.20
2023-03-01T10:03:26.745Z,27.70
2023-03-01T10:06:07.627Z,30.80
2023-03-01T10:08:44.847Z,29.50
2023-03-01T10:11:27.045Z,31.50
2023-03-01T10:14:05.900Z,29.70
2023-03-01T10:16:46.927Z,26.40
2023-03-01T10:19:30.322Z,30.70
2023-03-01T10:22:14.238Z,26.30
2023-03-01T10:24:49.121Z,28.70
2023-03-01T10:27:27.235Z,29.70
2023-03-01T10:30:13.846Z,25.70
2023-03-01T10:32:49.878Z,24.20
2023-03-01T10:35:27.390Z,23.50
2023-03-01T10:38:08.473Z,23.80
2023-03-01T10:40:59.635Z,24.70
2023-03-01T10:43:45.980Z,21.80
2023-03-01T10:46:30.579Z,22.10
2023-03-01T10:49:19.909Z,23.10
2023-03-01T10:51:55.745Z,21.60
2023-03-01T10:54:32.039Z,21.70
2023-03-01T10:57:08.590Z,20.60
2023-03-01T10:59:43.901Z,21.30
2023-03-01T11:02:27.408Z,19.00
2023-03-01T11:05:53.940Z,19.80
2023-03-01T11:08:49.207Z,18.70
2023-03-01T11:11:32.781Z,22.80
2023-03-01T11:14:26.864Z,22.80
2023-03-01T11:17:06.727Z,21.00
2023-03-01T11:19:39.960Z,19.60
2023-03-01T11:22:19.621Z,18.40
2023-03-01T11:25:08.933Z,17.00
2023-03-01T11:27:47.027Z,17.80
2023-03-01T11:30:26.932Z,17.90
2023-03-01T11:33:19.994Z,17.90
2023-03-01T11:36:01.102Z,16.50
2023-03-01T11:38:38.434Z,16.20
2023-03-01T11:41:17.798Z,16.10
2023-03-01T11:44:00.162Z,20.00
2023-03-01T11:47:07.370Z,17.80
2023-03-01T11:50:02.991Z,18.20
2023-03-01T11:52:51.478Z,19.30
2023-03-01T11:56:01.944Z,16.00
2023-03-01T11:58:56.914Z,17.00
2023-03-01T12:01:42.464Z,17.80
2023-03-01T12:04:59.818Z,19.70
2023-03-01T12:07:37.980Z,18.70
2023-03-01T12:10:26.286Z,17.50
2023-03-01T12:16:06.274Z,16.70
2023-03-01T12:19:03.136Z,17.00
2023-03-01T12:21:51.698Z,17.70
2023-03-01T12:24:46.601Z,22.10
2023-03-01T12:27:35.088Z,17.60
2023-03-01T12:30:28.089Z,17.50
2023-03-01T12:33:16.365Z,21.20
2023-03-01T12:36:12.298Z,19.70
2023-03-01T12:38:52.016Z,17.10
2023-03-01T12:41:46.411Z,17.60
2023-03-01T12:44:36.210Z,20.70
2023-03-01T12:47:22.035Z,17.20
2023-03-01T12:49:58.692Z,22.20
2023-03-01T12:52:40.902Z,19.20
2023-03-01T12:55:27.947Z,19.20
2023-03-01T12:58:11.005Z,17.90
2023-03-01T13:00:58.006Z,20.90
2023-03-01T13:03:41.866Z,20.30
2023-03-01T13:06:27.506Z,18.20
2023-03-01T13:09:09.174Z,20.10
2023-03-01T13:11:45.989Z,20.70
2023-03-01T13:14:47.328Z,18.40
2023-03-01T13:17:44.665Z,19.90
2023-03-01T13:20:21.559Z,20.90
2023-03-01T13:23:09.686Z,19.60
2023-03-01T13:26:16.798Z,20.60
2023-03-01T13:29:01.772Z,19.10
2023-03-01T13:32:06.009Z,18.40
2023-03-01T13:34:47.805Z,16.90
2023-03-01T13:37:31.036Z,19.90
2023-03-01T13:40:31.017Z,20.70
2023-03-01T13:43:30.604Z,23.80
2023-03-01T13:46:10.316Z,20.30
2023-03-01T13:48:46.513Z,22.40
2023-03-01T13:51:26.419Z,25.00
2023-03-01T13:54:01.642Z,23.50
2023-03-01T13:56:41.242Z,23.60
2023-03-01T13:59:21.006Z,23.10
2023-03-01T14:02:00.846Z,24.90
2023-03-01T14:04:37.470Z,20.60
2023-03-01T14:07:21.329Z,24.60
2023-03-01T14:09:58.221Z,24.70
2023-03-01T14:12:48.205Z,21.90
2023-03-01T14:15:28.480Z,25.80
2023-03-01T14:18:07.224Z,25.00
2023-03-01T14:20:46.805Z,23.30
2023-03-01T14:23:23.471Z,21.00
2023-03-01T14:26:00.299Z,22.30
2023-03-01T14:28:35.765Z,19.90
2023-03-01T14:31:51.777Z,20.90
2023-03-01T14:34:27.791Z,19.70
2023-03-01T14:37:12.542Z,24.10
2023-03-01T14:39:46.397Z,22.90
2023-03-01T14:42:21.470Z,24.60
2023-03-01T14:44:57.604Z,22.30
2023-03-01T14:47:34.863Z,21.50
2023-03-01T14:50:18.633Z,21.90
2023-03-01T14:52:57.411Z,20.80
2023-03-01T14:55:36.555Z,23.70
2023-03-01T14:58:14.472Z,22.80
2023-03-01T15:00:55.341Z,22.60
2023-03-01T15:03:41.266Z,22.10
2023-03-01T15:06:18.535Z,24.30
2023-03-01T15:08:55.600Z,24.20
2023-03-01T15:11:33.198Z,23.30
2023-03-01T15:14:45.698Z,24.80
2023-03-01T15:17:33.531Z,23.60
2023-03-01T15:20:19.342Z,24.80
2023-03-01T15:22:53.827Z,23.50
2023-03-01T15:25:30.965Z,24.90
2023-03-01T15:28:06.384Z,23.80
2023-03-01T15:30:41.797Z,28.40
2023-03-01T15:33:40.695Z,21.60
2023-03-01T15:36:36.471Z,25.90
2023-03-01T15:39:24.449Z,24.10
2023-03-01T15:41:59.302Z,27.30
2023-03-01T15:44:43.387Z,22.70
2023-03-01T15:47:33.271Z,23.60
2023-03-01T15:50:07.754Z,25.50
2023-03-01T15:52:46.001Z,31.50
2023-03-01T15:55:23.884Z,26.60
2023-03-01T15:58:07.882Z,27.50
2023-03-01T16:00:48.818Z,28.00
2023-03-01T16:03:34.077Z,26.10
2023-03-01T16:06:09.152Z,26.80
2023-03-01T16:08:44.390Z,28.80
2023-03-01T16:11:22.093Z,29.00
2023-03-01T16:13:56.288Z,25.80
2023-03-01T16:16:31.665Z,26.80
2023-03-01T16:19:06.076Z,25.50
2023-03-01T16:21:41.458Z,30.00
2023-03-01T16:24:15.046Z,23.20
2023-03-01T16:26:50.634Z,24.70
2023-03-01T16:29:25.504Z,25.70
2023-03-01T16:32:02.904Z,26.40
2023-03-01T16:34:37.328Z,26.80
2023-03-01T16:37:11.020Z,25.20
2023-03-01T16:39:45.251Z,30.00
2023-03-01T16:42:20.766Z,28.80
2023-03-01T16:44:59.072Z,21.50
2023-03-01T16:47:34.470Z,26.50
2023-03-01T16:50:10.052Z,24.00
2023-03-01T16:52:45.365Z,23.30
2023-03-01T16:55:19.339Z,27.20
2023-03-01T16:57:54.015Z,24.70
2023-03-01T17:00:29.885Z,23.60
2023-03-01T17:03:05.240Z,26.60
2023-03-01T17:05:42.908Z,25.30
2023-03-01T17:08:19.209Z,26.60
2023-03-01T17:10:53.641Z,23.20
2023-03-01T17:13:29.333Z,28.30
2023-03-01T17:16:06.036Z,28.70
2023-03-01T17:18:40.589Z,25.70
2023-03-01T17:21:16.802Z,28.40
2023-03-01T17:23:53.392Z,28.80
2023-03-01T17:26:29.956Z,28.20
2023-03-01T17:29:05.579Z,28.50
2023-03-01T17:31:42.033Z,30.70
2023-03-01T17:34:17.882Z,27.70
2023-03-01T17:36:56.239Z,30.60
2023-03-01T17:39:36.964Z,29.80
2023-03-01T17:42:12.675Z,26.90
2023-03-01T17:44:46.985Z,31.50
2023-03-01T17:47:22.069Z,33.50
2023-03-01T17:49:58.629Z,28.20
2023-03-01T17:52:34.866Z,30.60
2023-03-01T17:55:12.976Z,30.10
2023-03-01T17:57:48.013Z,30.60
2023-03-01T18:00:31.798Z,29.60
2023-03-01T18:03:08.845Z,31.80
2023-03-01T18:05:44.704Z,36.40
2023-03-01T18:08:19.080Z,30.40
2023-03-01T18:11:00.684Z,32.40
2023-03-01T18:13:36.767Z,37.90
2023-03-01T18:16:17.225Z,41.80
2023-03-01T18:18:55.049Z,38.30
2023-03-01T18:21:31.670Z,37.20
2023-03-01T18:24:07.581Z,35.50
2023-03-01T18:26:45.355Z,35.80
2023-03-01T18:29:21.375Z,42.40
2023-03-01T18:31:57.043Z,41.20
2023-03-01T18:34:33.972Z,44.50
2023-03-01T18:37:10.624Z,41.20
2023-03-01T18:39:49.265Z,42.40
2023-03-01T18:42:27.909Z,44.10
2023-03-01T18:45:07.309Z,46.00
2023-03-01T18:47:44.483Z,42.90
2023-03-01T18:50:24.576Z,40.80
2023-03-01T18:53:04.524Z,45.60
2023-03-01T18:55:42.106Z,42.20
2023-03-01T18:58:17.589Z,42.00
2023-03-01T19:00:59.031Z,39.40
2023-03-01T19:03:36.514Z,43.40
2023-03-01T19:06:13.207Z,46.80
2023-03-01T19:08:50.565Z,42.00
2023-03-01T19:11:32.074Z,41.10
2023-03-01T19:14:09.702Z,41.70
2023-03-01T19:16:46.000Z,38.90
2023-03-01T19:19:23.852Z,38.80
2023-03-01T19:22:05.909Z,43.70
2023-03-01T19:24:43.109Z,43.80
2023-03-01T19:27:21.134Z,41.60
2023-03-01T19:29:56.876Z,42.50
2023-03-01T19:32:35.169Z,42.40
2023-03-01T19:35:13.046Z,36.90
2023-03-01T19:37:49.118Z,35.30
2023-03-01T19:40:27.029Z,40.10
2023-03-01T19:43:05.514Z,42.70
2023-03-01T19:48:18.311Z,46.90
2023-03-01T19:50:56.794Z,42.00
2023-03-01T19:53:34.107Z,44.90
2023-03-01T19:56:12.905Z,42.90
2023-03-01T19:58:51.553Z,41.90
2023-03-01T20:01:33.431Z,44.90
2023-03-01T20:04:11.655Z,43.70
2023-03-01T20:06:50.151Z,48.00
2023-03-01T20:09:27.747Z,41.00
2023-03-01T20:12:07.662Z,42.30
2023-03-01T20:14:43.938Z,47.50
2023-03-01T20:17:31.225Z,45.90
2023-03-01T20:20:08.865Z,47.10
2023-03-01T20:22:53.912Z,48.20
2023-03-01T20:25:35.751Z,48.60
2023-03-01T20:28:12.237Z,49.10
2023-03-01T20:30:53.709Z,49.60
2023-03-01T20:33:31.108Z,50.60
2023-03-01T20:36:09.284Z,46.40
2023-03-01T20:38:48.078Z,50.40
2023-03-01T20:44:02.146Z,50.60
2023-03-01T20:46:39.303Z,50.10
2023-03-01T20:49:16.335Z,46.20
2023-03-01T20:51:52.644Z,53.80
2023-03-01T20:54:30.997Z,52.80
2023-03-01T20:59:40.659Z,51.40
2023-03-01T21:02:17.574Z,57.00
2023-03-01T21:04:52.199Z,54.60
2023-03-01T21:07:32.208Z,57.40
2023-03-01T21:10:11.902Z,54.90
2023-03-01T21:12:47.589Z,55.60
2023-03-01T21:15:29.055Z,54.20
2023-03-01T21:18:04.384Z,56.70
2023-03-01T21:20:43.727Z,58.70
2023-03-01T21:23:19.792Z,57.10
2023-03-01T21:26:04.059Z,57.50
2023-03-01T21:28:38.334Z,55.00
2023-03-01T21:31:15.140Z,57.00
2023-03-01T21:33:53.038Z,57.50
2023-03-01T21:36:31.025Z,55.20
2023-03-01T21:39:07.245Z,62.60
2023-03-01T21:41:41.297Z,64.20
2023-03-01T21:44:15.257Z,77.90
2023-03-01T21:46:50.198Z,75.70
2023-03-01T21:49:23.942Z,70.70
2023-03-01T21:51:57.358Z,75.50
2023-03-01T21:54:31.708Z,71.40
2023-03-01T21:57:05.931Z,80.30
2023-03-01T21:59:40.055Z,82.50
2023-03-01T22:02:16.106Z,63.50
2023-03-01T22:04:49.927Z,65.90
2023-03-01T22:07:23.681Z,66.10
2023-03-01T22:09:58.234Z,72.40
2023-03-01T22:12:31.762Z,65.20
2023-03-01T22:15:06.018Z,66.40
2023-03-01T22:17:39.535Z,59.70
2023-03-01T22:20:15.062Z,63.20
2023-03-01T22:22:48.851Z,60.00
2023-03-01T22:25:22.845Z,68.00
2023-03-01T22:27:56.364Z,66.40
2023-03-01T22:30:30.110Z,56.90
2023-03-01T22:33:03.574Z,60.20
2023-03-01T22:35:37.339Z,65.40
2023-03-01T22:38:11.210Z,64.60
2023-03-01T22:40:44.967Z,63.10
2023-03-01T22:43:18.684Z,65.20
2023-03-01T22:45:52.495Z,64.50
2023-03-01T22:48:26.904Z,60.60
2023-03-01T22:51:00.841Z,63.00
2023-03-01T22:53:34.769Z,59.60
2023-03-01T22:56:17.944Z,62.70
2023-03-01T22:58:52.647Z,60.10
2023-03-01T23:01:27.578Z,61.10
2023-03-01T23:04:01.586Z,61.30
2023-03-01T23:06:35.839Z,62.30
2023-03-01T23:09:09.277Z,61.10
2023-03-01T23:11:43.489Z,64.80
2023-03-01T23:14:17.453Z,63.60
2023-03-01T23:16:51.922Z,57.60
2023-03-01T23:19:26.088Z,60.30
2023-03-01T23:21:59.716Z,62.70
2023-03-01T23:24:34.118Z,57.90
2023-03-01T23:27:07.898Z,58.40
2023-03-01T23:29:41.561Z,56.00
2023-03-01T23:32:16.168Z,56.10
2023-03-01T23:34:50.399Z,56.30
2023-03-01T23:37:24.102Z,61.80
2023-03-01T23:39:57.993Z,68.80
2023-03-01T23:42:31.469Z,57.20
2023-03-01T23:45:09.476Z,61.70
2023-03-01T23:47:44.672Z,62.40
2023-03-01T23:50:18.696Z,64.70
2023-03-01T23:52:52.625Z,71.40
2023-03-01T23:55:27.688Z,69.00
2023-03-01T23:58:01.132Z,67.10
